KONA/ONA METAR and TAF weather

Enter ICAO airport designator
Station Type Date Time Source
KONA METAR 2018/12/10 11:55 UTC NOAA

KONA 101155Z AUTO 00000KT 5SM BR OVC006 M07/M08 A3025 RMK AO2


Station Type Date Time Source
KONA Decoded METAR 2018/12/10 11:55 UTC NOAA

Winona, Winona Municipal Airport-Max Conrad Field, MN, United States (KONA) 44-05N 091-42W
Dec 10, 2018 - 06:55 AM EST / 2018.12.10 1155 UTC
Wind: Calm:0
Visibility: 5 mile(s):0
Sky conditions: overcast
Weather: mist
Temperature: 19 F (-7 C)
Dew Point: 17 F (-8 C)
Relative Humidity: 92%
Pressure (altimeter): 30.25 in. Hg (1024 hPa)
ob: KONA 101155Z AUTO 00000KT 5SM BR OVC006 M07/M08 A3025 RMK AO2
cycle: 12

Station Type Date Time Source
KONA TAF UTC NOAA

Error!


Example: see airport list